Hovedside
METAR-TAF:

METAR-TAF

Lufthavner :

Sandane, Norge

Sandane lufthamn

breddegrad: 61-50N, lengdegrad: 006-07E, høyde over havet: 6 m

Gjeldene værobservasjon

Denne rapporten ble laget for 2 timer og 44 minutter siden, klokken 19:50 UTC
Vind 7 kt fra Sør
Temperatur 15°C
Luftfuktighet 82%
Trykk 1015 hPa
Sikt 10 km eller mer
Få skyer i en høyde av 4200 ft
Spredte skyer i en høyde av 5700 ft
Spredte skyer i en høyde av 6900 ft

METAR: ENSD 241950Z 17007KT 9999 FEW042 SCT057 SCT069 15/12 Q1015 RMK WIND 1138FT VRB02KT

Tid: 00:34 (22:34 UTC)


TAF: fraværende

Værobservasjoner og værvarsel for over 4000 flyplasser (METAR- og TAF-rapporter).

Tilgjengelige stasjoner er representert av de røde og gule prikkene på kartet.

Hold musepekeren over prikken for å se navnet på stasjonen.

Klikk så for å se værobservasjoner og -varsler.

For å forandre kartet kan du klikke på den grønne knappen med svart kryss for å zoome inn, på den grønne knappen med strek for å zoome ut, eller på de grønne pilene for å se tilstøtende kart.


METAR-TAF: